CheckWX is a tool to help pilots better visualize weather data.  It is not intended as a substitute for an official pre-flight weather briefing.

10:10:19 UTC

CYAM METAR
Sault Ste Marie Airport
Sault Ste Marie, Canada
Current

1 hour ago

CYAM 310900Z 00000KT 15SM FEW018 FEW240 M01/M01 A3025 RMK SC1CI1 SC TR CI TR SLP253
Observed
May-31 @ 09:00 UTC
Visibility
Flight Rules
VFR
Cloud Levels
  • Few at 1,800' AGL
  • Few at 24,000' AGL
Temperature
-1°C / 30°F
Dewpoint
-1°C / 30°F
Humidity
100%
Altimeter
30.25" Hg
Pressure
1024.42 hPa
Previous

2 hours ago

CYAM 310800Z 30003KT 15SM FEW240 02/M00 A3024 RMK CI1 SLP250
Observed
May-31 @ 08:00 UTC
Wind
  • 300° at 3 KTS
Visibility
Flight Rules
VFR
Cloud Levels
  • Few at 24,000' AGL
Temperature
C / 36°F
Dewpoint
C / 32°F
Humidity
87%
Altimeter
30.24" Hg
Pressure
1024.02 hPa
Previous

3 hours ago

CYAM 310700Z 32007KT 15SM FEW240 02/M00 A3024 RMK CI1 SLP250
Observed
May-31 @ 07:00 UTC
Wind
  • 320° at 7 KTS
Visibility
Flight Rules
VFR
Cloud Levels
  • Few at 24,000' AGL
Temperature
C / 36°F
Dewpoint
C / 32°F
Humidity
87%
Altimeter
30.24" Hg
Pressure
1024.02 hPa